Time;durP1;ratioP1;P1;durP2;ratioP2;P2;SDS_P1;SDS_P2;PMS_P1;PMS_P2;Temp;Humidity;BMP_temperature;BMP_pressure;BME280_temperature;BME280_humidity;BME280_pressure;Samples;Min_cycle;Max_cycle;Signal;HPM_P1;HPM_P2
2021/11/07 00:06:13;;;;;;;7.03;4.90;;;9.40;99.90;;;;;;4989404;28;20238;-50
2021/11/07 00:13:51;;;;;;;6.27;5.03;;;9.40;99.90;;;;;;4988681;28;20252;-50
2021/11/07 00:16:24;;;;;;;8.30;5.30;;;9.40;99.90;;;;;;4989209;28;20290;-50
2021/11/07 00:21:48;;;;;;;8.67;6.07;;;9.50;99.90;;;;;;4981373;28;20323;-51
2021/11/07 00:24:29;;;;;;;7.30;5.27;;;9.50;99.90;;;;;;4987915;28;20245;-50
2021/11/07 00:27:09;;;;;;;6.40;5.80;;;9.50;99.90;;;;;;4988402;28;20240;-51
2021/11/07 00:29:48;;;;;;;6.10;5.53;;;9.50;99.90;;;;;;4989259;28;20300;-52
2021/11/07 00:32:23;;;;;;;8.90;6.00;;;9.50;99.90;;;;;;4993249;28;20232;-51
2021/11/07 00:37:25;;;;;;;6.60;5.90;;;9.50;99.90;;;;;;4988647;28;20244;-52
2021/11/07 00:42:45;;;;;;;7.43;6.67;;;9.60;99.90;;;;;;4987773;28;20306;-52
2021/11/07 00:47:49;;;;;;;8.00;7.20;;;9.60;99.90;;;;;;4988322;28;20209;-51
2021/11/07 00:50:23;;;;;;;7.30;6.53;;;9.60;99.90;;;;;;4988663;28;20207;-51
2021/11/07 00:52:55;;;;;;;9.10;7.17;;;9.60;99.90;;;;;;4992535;28;20294;-51
2021/11/07 00:57:55;;;;;;;9.17;7.33;;;9.70;99.90;;;;;;4976994;28;20228;-51
2021/11/07 01:00:36;;;;;;;10.77;8.27;;;9.70;99.90;;;;;;4978881;28;20623;-52
2021/11/07 01:03:11;;;;;;;9.03;8.07;;;9.70;99.90;;;;;;4976815;28;20226;-51
2021/11/07 01:05:38;;;;;;;10.67;7.97;;;9.70;99.90;;;;;;4977200;28;20576;-51
2021/11/07 01:08:05;;;;;;;11.87;8.47;;;9.70;99.90;;;;;;4977983;28;20232;-50
2021/11/07 01:10:35;;;;;;;10.97;9.37;;;9.70;99.90;;;;;;4979460;28;20247;-50
2021/11/07 01:13:03;;;;;;;13.13;9.47;;;9.80;99.90;;;;;;4976884;28;20301;-50
2021/11/07 01:15:32;;;;;;;13.47;9.73;;;9.80;99.90;;;;;;4974335;28;20300;-51
2021/11/07 01:18:00;;;;;;;11.47;9.80;;;9.80;99.90;;;;;;4977795;28;20220;-51
2021/11/07 01:20:30;;;;;;;10.97;9.63;;;9.80;99.90;;;;;;4971866;28;20232;-50
2021/11/07 01:25:41;;;;;;;12.97;10.23;;;9.80;99.90;;;;;;4958672;28;20209;-49
2021/11/07 01:28:09;;;;;;;14.47;10.93;;;9.80;99.90;;;;;;4957896;28;20206;-50
2021/11/07 01:30:43;;;;;;;15.53;11.67;;;9.80;99.90;;;;;;4958756;28;20210;-53
2021/11/07 01:33:16;;;;;;;12.13;10.83;;;9.90;99.90;;;;;;4954175;28;20238;-50
2021/11/07 01:38:34;;;;;;;17.80;11.63;;;9.90;99.90;;;;;;4958424;28;20224;-51
2021/11/07 01:41:16;;;;;;;14.53;12.20;;;9.90;99.90;;;;;;4958334;28;20256;-49
2021/11/07 01:43:45;;;;;;;17.63;12.27;;;9.90;99.90;;;;;;4956924;28;20218;-53
2021/11/07 01:48:48;;;;;;;20.50;13.97;;;10.00;99.90;;;;;;4957228;28;20206;-52
2021/11/07 01:51:15;;;;;;;16.63;13.43;;;10.00;99.90;;;;;;4958060;28;20227;-50
2021/11/07 01:53:44;;;;;;;22.13;14.47;;;10.00;99.90;;;;;;4957058;28;20217;-50
2021/11/07 01:56:13;;;;;;;21.63;14.67;;;10.00;99.90;;;;;;4954354;28;20215;-50
2021/11/07 01:58:44;;;;;;;16.80;14.27;;;10.10;99.90;;;;;;4956912;28;20281;-50
2021/11/07 02:01:11;;;;;;;22.83;14.57;;;10.10;99.90;;;;;;4958856;28;20221;-50
2021/11/07 02:03:39;;;;;;;20.43;14.90;;;10.10;99.90;;;;;;4957786;28;20222;-50
2021/11/07 02:06:06;;;;;;;18.57;14.57;;;10.10;99.90;;;;;;4954829;28;20203;-50
2021/11/07 02:08:33;;;;;;;20.30;15.00;;;10.20;99.90;;;;;;4957684;28;20211;-50
2021/11/07 02:11:00;;;;;;;20.13;15.60;;;10.20;99.90;;;;;;4955647;28;20211;-50
2021/11/07 02:13:27;;;;;;;23.20;16.53;;;10.20;99.90;;;;;;4957270;28;20203;-50
2021/11/07 02:15:55;;;;;;;18.80;15.97;;;10.10;99.90;;;;;;4956573;28;20297;-51
2021/11/07 02:18:23;;;;;;;21.33;16.10;;;10.10;99.90;;;;;;4957532;28;20230;-50
2021/11/07 02:20:51;;;;;;;19.70;14.50;;;10.10;99.90;;;;;;4966980;28;20248;-51
2021/11/07 02:23:21;;;;;;;17.57;15.07;;;10.10;99.90;;;;;;4976469;28;20644;-51
2021/11/07 02:25:52;;;;;;;22.30;15.87;;;10.10;99.90;;;;;;4977536;28;20213;-51
2021/11/07 02:28:43;;;;;;;26.57;16.70;;;10.20;99.90;;;;;;4975685;28;20238;-52
2021/11/07 02:31:12;;;;;;;21.30;15.20;;;10.20;99.90;;;;;;4974158;28;20355;-50
2021/11/07 02:33:40;;;;;;;22.77;16.00;;;10.20;99.90;;;;;;4976137;28;20215;-50
2021/11/07 02:36:15;;;;;;;25.27;16.77;;;10.20;99.90;;;;;;4976765;28;20292;-51
2021/11/07 02:38:42;;;;;;;20.73;16.33;;;10.20;99.90;;;;;;4976874;28;20245;-51
2021/11/07 02:41:10;;;;;;;25.93;16.70;;;10.30;99.90;;;;;;4976731;28;20268;-51
2021/11/07 02:43:46;;;;;;;21.93;16.70;;;10.30;99.90;;;;;;4976440;28;20232;-50
2021/11/07 02:46:17;;;;;;;28.83;17.67;;;10.30;99.90;;;;;;4975510;28;20205;-51
2021/11/07 02:48:46;;;;;;;24.20;18.07;;;10.40;99.90;;;;;;4976866;28;20214;-50
2021/11/07 02:51:13;;;;;;;23.20;17.23;;;10.40;99.90;;;;;;4976604;28;20208;-51
2021/11/07 02:53:41;;;;;;;24.67;16.80;;;10.40;99.90;;;;;;4975377;28;20874;-51
2021/11/07 02:56:08;;;;;;;23.10;17.93;;;10.40;99.90;;;;;;4973845;28;20236;-51
2021/11/07 02:58:35;;;;;;;27.23;17.63;;;10.50;99.90;;;;;;4976607;28;20211;-50
2021/11/07 03:01:03;;;;;;;28.50;17.50;;;10.60;99.90;;;;;;4972854;28;20227;-50
2021/11/07 03:03:30;;;;;;;24.00;17.60;;;10.60;99.90;;;;;;4976674;28;20248;-52
2021/11/07 03:06:00;;;;;;;23.97;17.73;;;10.50;99.90;;;;;;4976495;28;20242;-51
2021/11/07 03:08:29;;;;;;;25.20;17.13;;;10.50;99.90;;;;;;4975753;28;20205;-51
2021/11/07 03:10:57;;;;;;;28.37;18.03;;;10.50;99.90;;;;;;4976273;28;20213;-51
2021/11/07 03:13:24;;;;;;;28.47;19.57;;;10.50;99.90;;;;;;4977656;28;20842;-50
2021/11/07 03:15:51;;;;;;;27.30;18.93;;;10.60;99.90;;;;;;4981188;28;20210;-51
2021/11/07 03:18:18;;;;;;;30.20;17.97;;;10.50;99.90;;;;;;4976657;28;20265;-52
2021/11/07 03:20:45;;;;;;;24.33;17.73;;;10.50;99.90;;;;;;4977575;28;20288;-51
2021/11/07 03:23:19;;;;;;;31.03;19.37;;;10.60;99.90;;;;;;4976036;28;20717;-51
2021/11/07 03:25:50;;;;;;;24.27;17.67;;;10.50;99.90;;;;;;4978430;28;20203;-49
2021/11/07 03:28:18;;;;;;;28.53;19.33;;;10.50;99.90;;;;;;4978577;28;20266;-51
2021/11/07 03:31:10;;;;;;;26.47;18.47;;;10.60;99.90;;;;;;4978410;28;20320;-51
2021/11/07 03:33:43;;;;;;;30.90;18.67;;;10.60;99.90;;;;;;4978819;28;20300;-51
2021/11/07 03:36:16;;;;;;;28.43;20.33;;;10.60;99.90;;;;;;4979617;28;20203;-52
2021/11/07 03:38:48;;;;;;;27.77;19.37;;;10.60;99.90;;;;;;4976922;28;20606;-51
2021/11/07 03:41:16;;;;;;;30.23;20.23;;;10.70;99.90;;;;;;4979054;28;20676;-51
2021/11/07 03:43:43;;;;;;;27.07;18.13;;;10.70;99.90;;;;;;4977264;28;20219;-50
2021/11/07 03:46:11;;;;;;;27.33;18.37;;;10.60;99.90;;;;;;4979504;28;20292;-50
2021/11/07 03:48:40;;;;;;;28.20;19.37;;;10.70;99.90;;;;;;4978965;28;20205;-50
2021/11/07 03:51:12;;;;;;;28.37;18.30;;;10.70;99.90;;;;;;4977516;28;20202;-52
2021/11/07 03:53:40;;;;;;;24.73;18.67;;;10.70;99.90;;;;;;4977547;28;20205;-51
2021/11/07 03:56:07;;;;;;;26.77;18.93;;;10.70;99.90;;;;;;4978724;28;20209;-52
2021/11/07 03:58:34;;;;;;;24.83;18.90;;;10.70;99.90;;;;;;4978630;28;20207;-51
2021/11/07 04:01:01;;;;;;;28.87;19.30;;;10.70;99.90;;;;;;4978421;28;20206;-50
2021/11/07 04:03:28;;;;;;;31.17;20.47;;;10.70;99.90;;;;;;4977513;28;20801;-51
2021/11/07 04:05:57;;;;;;;28.47;19.23;;;10.70;99.90;;;;;;4981009;28;20222;-53
2021/11/07 04:08:24;;;;;;;25.03;18.63;;;10.70;99.90;;;;;;4978140;28;20205;-50
2021/11/07 04:10:52;;;;;;;28.53;19.50;;;10.80;99.90;;;;;;4978252;28;20272;-50
2021/11/07 04:13:19;;;;;;;27.63;19.47;;;10.80;99.90;;;;;;4978261;28;20289;-53
2021/11/07 04:15:46;;;;;;;27.73;19.20;;;10.70;99.90;;;;;;4977188;28;20291;-51
2021/11/07 04:18:13;;;;;;;24.47;18.40;;;10.80;99.90;;;;;;4978075;28;20286;-53
2021/11/07 04:20:40;;;;;;;25.43;17.53;;;10.80;99.90;;;;;;4977352;28;20978;-51
2021/11/07 04:23:07;;;;;;;27.43;17.93;;;10.80;99.90;;;;;;4976912;28;20228;-51
2021/11/07 04:25:34;;;;;;;26.03;17.63;;;10.80;99.90;;;;;;4975619;28;20307;-51
2021/11/07 04:28:01;;;;;;;27.13;18.13;;;10.80;99.90;;;;;;4976926;28;20259;-53
2021/11/07 04:30:31;;;;;;;26.30;15.00;;;11.00;99.90;;;;;;4976372;28;20251;-51
2021/11/07 04:32:58;;;;;;;24.03;15.07;;;11.00;99.90;;;;;;4976794;28;20215;-51
2021/11/07 04:35:25;;;;;;;27.73;15.77;;;11.10;99.90;;;;;;4977971;28;20211;-51
2021/11/07 04:37:52;;;;;;;24.53;14.97;;;11.10;99.90;;;;;;4976195;28;20205;-51
2021/11/07 04:40:20;;;;;;;22.20;14.20;;;11.10;99.90;;;;;;4978531;28;20248;-51
2021/11/07 04:42:47;;;;;;;22.30;12.03;;;11.20;99.90;;;;;;4978396;28;20221;-51
2021/11/07 04:45:14;;;;;;;20.97;10.10;;;11.30;99.90;;;;;;4978059;28;20279;-51
2021/11/07 04:47:41;;;;;;;18.80;9.10;;;11.30;99.90;;;;;;4976765;28;20701;-53
2021/11/07 04:50:10;;;;;;;15.53;10.03;;;11.30;99.90;;;;;;4978383;28;20212;-50
2021/11/07 04:52:38;;;;;;;15.53;9.43;;;11.40;99.90;;;;;;4977741;28;20204;-50
2021/11/07 04:55:07;;;;;;;13.20;9.10;;;11.50;99.90;;;;;;4977955;28;20279;-51
2021/11/07 04:57:34;;;;;;;18.60;9.93;;;11.50;99.90;;;;;;4974697;28;20217;-53
2021/11/07 05:00:01;;;;;;;15.50;9.40;;;11.30;99.90;;;;;;4977554;28;20578;-51
2021/11/07 05:02:28;;;;;;;15.97;10.20;;;11.30;99.90;;;;;;4975545;28;20217;-50
2021/11/07 05:04:56;;;;;;;16.90;10.00;;;11.30;99.90;;;;;;4977287;28;20672;-51
2021/11/07 05:07:23;;;;;;;17.33;9.43;;;11.40;99.90;;;;;;4975730;28;20644;-53
2021/11/07 05:09:50;;;;;;;16.00;8.17;;;11.40;99.90;;;;;;4977501;28;20700;-51
2021/11/07 05:12:16;;;;;;;12.53;6.93;;;11.40;99.90;;;;;;4975209;28;20208;-52
2021/11/07 05:14:44;;;;;;;13.17;6.33;;;11.30;99.90;;;;;;4977024;28;20618;-51
2021/11/07 05:17:10;;;;;;;11.33;5.70;;;11.30;99.90;;;;;;4974320;28;20222;-50
2021/11/07 05:19:37;;;;;;;13.13;4.93;;;11.20;99.90;;;;;;4976254;28;20799;-50
2021/11/07 05:22:05;;;;;;;13.53;5.03;;;11.20;99.90;;;;;;4976718;28;20722;-53
2021/11/07 05:24:32;;;;;;;9.77;4.90;;;11.30;99.90;;;;;;4977430;28;20291;-51
2021/11/07 05:27:00;;;;;;;14.57;4.57;;;11.30;99.90;;;;;;4975800;28;20206;-51
2021/11/07 05:29:27;;;;;;;11.87;4.10;;;11.30;99.90;;;;;;4976946;28;20212;-51
2021/11/07 05:31:55;;;;;;;13.30;4.43;;;11.10;99.90;;;;;;4974826;28;20231;-51
2021/11/07 05:34:22;;;;;;;9.47;4.13;;;11.10;99.90;;;;;;4977174;28;20199;-51
2021/11/07 05:36:51;;;;;;;13.90;3.83;;;11.10;99.90;;;;;;4973342;28;20207;-52
2021/11/07 05:39:19;;;;;;;11.53;4.57;;;11.10;99.90;;;;;;4972150;28;20289;-51
2021/11/07 05:41:46;;;;;;;10.60;4.93;;;11.20;99.90;;;;;;4976328;28;20213;-50
2021/11/07 05:44:14;;;;;;;9.90;4.60;;;11.20;99.90;;;;;;4975029;28;20647;-50
2021/11/07 05:46:43;;;;;;;16.47;4.70;;;11.20;99.90;;;;;;4977939;28;21940;-51
2021/11/07 05:49:10;;;;;;;15.30;4.97;;;11.10;99.90;;;;;;4977382;28;20241;-51
2021/11/07 05:51:37;;;;;;;13.20;4.93;;;11.10;99.90;;;;;;4975553;28;20272;-50
2021/11/07 05:54:05;;;;;;;13.03;4.67;;;11.20;99.90;;;;;;4977392;28;20236;-53
2021/11/07 05:56:33;;;;;;;11.70;4.53;;;11.10;99.90;;;;;;4975645;28;20716;-51
2021/11/07 05:59:00;;;;;;;14.50;4.50;;;11.20;99.90;;;;;;4978174;28;20216;-52
2021/11/07 06:01:27;;;;;;;8.57;3.60;;;11.30;99.90;;;;;;4976386;28;20657;-51
2021/11/07 06:03:54;;;;;;;11.23;3.93;;;11.30;99.90;;;;;;4974090;28;20213;-51
2021/11/07 06:06:21;;;;;;;18.73;4.00;;;11.30;99.90;;;;;;4977998;28;20296;-51
2021/11/07 06:08:48;;;;;;;9.47;4.27;;;11.30;99.90;;;;;;4977425;28;20284;-50
2021/11/07 06:11:15;;;;;;;10.93;3.70;;;11.30;99.90;;;;;;4977601;28;20287;-51
2021/11/07 06:13:42;;;;;;;12.60;4.43;;;11.30;99.90;;;;;;4975628;28;20241;-51
2021/11/07 06:16:09;;;;;;;16.10;3.47;;;11.30;99.90;;;;;;4976320;28;20619;-51
2021/11/07 06:18:36;;;;;;;12.30;3.67;;;11.40;99.90;;;;;;4975206;28;20251;-50
2021/11/07 06:21:03;;;;;;;10.07;3.43;;;11.40;99.90;;;;;;4975835;28;20270;-50
2021/11/07 06:23:32;;;;;;;11.53;2.73;;;11.20;99.90;;;;;;4975485;28;20197;-50
2021/11/07 06:26:00;;;;;;;12.93;3.10;;;11.20;99.90;;;;;;4976838;28;20255;-51
2021/11/07 06:28:27;;;;;;;11.67;2.43;;;11.20;99.90;;;;;;4974191;28;20232;-53
2021/11/07 06:30:55;;;;;;;16.37;3.17;;;11.20;99.90;;;;;;4974995;28;20252;-50
2021/11/07 06:33:22;;;;;;;12.60;2.70;;;11.10;99.90;;;;;;4975343;28;21629;-50
2021/11/07 06:35:48;;;;;;;13.40;2.63;;;11.00;99.90;;;;;;4974733;28;20208;-52
2021/11/07 06:38:15;;;;;;;10.63;2.37;;;11.00;99.90;;;;;;4974833;28;20248;-51
2021/11/07 06:40:42;;;;;;;17.40;2.90;;;10.90;99.90;;;;;;4974776;28;20273;-51
2021/11/07 06:43:09;;;;;;;15.73;3.33;;;10.90;99.90;;;;;;4973783;28;20209;-53
2021/11/07 06:45:36;;;;;;;13.47;2.23;;;10.90;99.90;;;;;;4975590;28;20592;-50
2021/11/07 06:48:04;;;;;;;12.87;2.23;;;10.90;99.90;;;;;;4974078;28;20309;-52
2021/11/07 06:50:31;;;;;;;9.67;2.27;;;10.80;99.90;;;;;;4980127;28;20212;-51
2021/11/07 06:52:58;;;;;;;12.77;2.87;;;10.80;99.90;;;;;;4978391;28;20236;-51
2021/11/07 06:55:26;;;;;;;11.60;2.00;;;10.80;99.90;;;;;;4980001;28;23966;-51
2021/11/07 06:57:57;;;;;;;15.93;2.30;;;10.80;99.90;;;;;;4977021;28;20593;-53
2021/11/07 07:00:26;;;;;;;10.97;2.53;;;10.70;99.90;;;;;;4975570;28;20239;-51
2021/11/07 07:02:54;;;;;;;10.77;2.53;;;10.80;99.90;;;;;;4977889;28;20237;-50
2021/11/07 07:05:21;;;;;;;15.17;2.23;;;10.80;99.90;;;;;;4979570;28;20231;-53
2021/11/07 07:07:53;;;;;;;13.90;2.77;;;10.80;99.90;;;;;;4977516;28;20376;-51
2021/11/07 07:10:25;;;;;;;15.93;2.10;;;10.70;99.90;;;;;;4976143;28;20205;-51
2021/11/07 07:15:51;;;;;;;8.13;2.43;;;10.50;99.90;;;;;;4980113;28;20234;-51
2021/11/07 07:18:30;;;;;;;8.70;2.20;;;10.60;99.90;;;;;;4978852;28;20318;-52
2021/11/07 07:34:32;;;;;;;8.97;2.10;;;10.40;99.90;;;;;;4956467;28;20281;-51
2021/11/07 07:37:00;;;;;;;10.23;2.30;;;10.40;99.90;;;;;;4977674;28;21044;-51
2021/11/07 07:39:26;;;;;;;8.93;1.90;;;10.50;99.90;;;;;;4978300;28;20247;-51
2021/11/07 07:41:53;;;;;;;11.93;2.30;;;10.50;99.90;;;;;;4978114;28;21072;-50
2021/11/07 07:44:22;;;;;;;12.47;2.03;;;10.60;99.90;;;;;;4978820;28;20683;-52
2021/11/07 07:46:49;;;;;;;14.53;2.00;;;10.60;99.90;;;;;;4975424;28;20207;-52
2021/11/07 07:49:18;;;;;;;13.67;2.83;;;10.70;99.90;;;;;;4980311;28;20216;-52
2021/11/07 07:51:46;;;;;;;8.73;2.27;;;10.80;99.90;;;;;;4982568;28;20236;-50
2021/11/07 07:54:14;;;;;;;7.27;2.10;;;10.90;99.90;;;;;;4978491;28;20225;-50
2021/11/07 07:56:41;;;;;;;12.43;2.10;;;10.80;99.90;;;;;;4976913;28;20235;-52
2021/11/07 07:59:08;;;;;;;11.60;2.77;;;11.00;99.90;;;;;;4977738;28;20297;-53
2021/11/07 08:01:35;;;;;;;15.10;2.70;;;10.90;99.90;;;;;;4977211;28;20234;-50
2021/11/07 08:04:02;;;;;;;9.27;2.27;;;10.80;99.90;;;;;;4978572;28;21179;-51
2021/11/07 08:06:30;;;;;;;6.57;2.03;;;10.60;99.90;;;;;;4975919;28;20257;-53
2021/11/07 08:08:57;;;;;;;9.53;2.00;;;10.60;99.90;;;;;;4975814;28;20211;-52
2021/11/07 08:11:24;;;;;;;9.73;1.80;;;10.60;99.90;;;;;;4974817;28;20260;-52
2021/11/07 08:13:53;;;;;;;9.23;2.00;;;10.50;99.90;;;;;;4977347;28;20282;-51
2021/11/07 08:16:24;;;;;;;10.07;2.10;;;10.60;99.90;;;;;;4980090;28;20212;-51
2021/11/07 08:18:52;;;;;;;7.07;1.93;;;10.70;99.90;;;;;;4978069;28;20705;-50
2021/11/07 08:21:19;;;;;;;7.93;1.60;;;10.60;99.90;;;;;;4976549;28;20249;-53
2021/11/07 08:23:49;;;;;;;12.83;2.27;;;10.70;99.90;;;;;;4975553;28;20213;-51
2021/11/07 08:26:17;;;;;;;10.30;2.27;;;10.70;99.90;;;;;;4978053;28;20713;-52
2021/11/07 08:28:46;;;;;;;11.93;2.73;;;10.70;99.90;;;;;;4979429;28;20591;-50
2021/11/07 08:31:25;;;;;;;7.93;1.87;;;10.80;99.90;;;;;;4977486;28;20208;-50
2021/11/07 08:33:52;;;;;;;12.97;2.00;;;10.70;99.90;;;;;;4976045;28;20650;-50
2021/11/07 08:36:25;;;;;;;13.13;2.03;;;10.70;99.90;;;;;;4980095;28;20690;-51
2021/11/07 08:38:58;;;;;;;14.23;2.17;;;10.70;99.90;;;;;;4958906;28;20206;-49
2021/11/07 08:41:26;;;;;;;7.50;1.70;;;10.70;99.90;;;;;;4979380;28;20231;-52
2021/11/07 09:01:11;;;;;;;10.70;2.37;;;12.00;10.10;;;;;;4977761;28;20312;-51
2021/11/07 09:03:44;;;;;;;11.57;2.13;;;12.10;17.10;;;;;;4977541;28;20218;-50
2021/11/07 09:08:49;;;;;;;12.47;2.17;;;11.90;88.00;;;;;;4978308;28;20208;-52
2021/11/07 09:11:20;;;;;;;11.07;1.87;;;11.80;76.90;;;;;;4976284;28;20968;-51
2021/11/07 09:13:47;;;;;;;11.20;2.30;;;11.80;79.80;;;;;;4978672;28;20252;-49
2021/11/07 09:16:15;;;;;;;11.17;2.03;;;11.90;56.20;;;;;;4979801;28;20215;-51
2021/11/07 09:18:43;;;;;;;10.30;2.37;;;11.90;37.40;;;;;;4979413;28;21105;-51
2021/11/07 09:21:20;;;;;;;8.50;1.80;;;11.90;45.50;;;;;;4977344;28;20248;-51
2021/11/07 09:23:51;;;;;;;12.53;2.27;;;12.00;1.00;;;;;;4978949;28;20633;-51
2021/11/07 09:28:57;;;;;;;6.10;1.70;;;12.90;1.00;;;;;;4979111;28;20624;-50
2021/11/07 09:36:38;;;;;;;9.40;2.47;;;13.80;1.00;;;;;;4977231;28;20206;-51
2021/11/07 09:39:17;;;;;;;11.10;2.50;;;13.70;1.00;;;;;;4978378;28;20244;-50
2021/11/07 09:44:19;;;;;;;9.43;2.10;;;13.00;1.00;;;;;;4976545;28;20210;-50
2021/11/07 09:49:22;;;;;;;8.10;2.00;;;12.90;1.00;;;;;;4976634;28;20217;-50
2021/11/07 09:52:13;;;;;;;8.43;2.20;;;12.70;1.00;;;;;;4975761;28;20248;-49
2021/11/07 09:54:49;;;;;;;9.87;2.00;;;12.70;1.00;;;;;;4977787;28;21011;-52
2021/11/07 09:57:20;;;;;;;13.57;2.20;;;12.60;7.40;;;;;;4959481;28;20370;-50
2021/11/07 09:59:53;;;;;;;13.07;2.03;;;12.30;1.00;;;;;;4976238;28;20243;-50
2021/11/07 10:02:21;;;;;;;11.83;2.10;;;12.40;1.00;;;;;;4976793;28;20703;-51
2021/11/07 10:04:49;;;;;;;11.60;2.23;;;12.40;88.10;;;;;;4977551;28;20215;-51
2021/11/07 10:07:23;;;;;;;11.37;2.33;;;12.30;1.00;;;;;;4974558;28;20580;-50
2021/11/07 10:09:55;;;;;;;9.87;2.57;;;12.40;1.00;;;;;;4976215;28;20218;-52
2021/11/07 10:12:42;;;;;;;6.93;1.93;;;12.20;1.00;;;;;;4975785;28;20201;-51
2021/11/07 10:15:18;;;;;;;8.23;2.50;;;12.20;1.00;;;;;;4974888;28;20312;-51
2021/11/07 10:17:54;;;;;;;8.37;2.63;;;12.20;1.00;;;;;;4969614;28;20214;-50
2021/11/07 10:20:33;;;;;;;14.30;2.57;;;12.30;1.00;;;;;;4973851;28;20241;-50
2021/11/07 10:23:05;;;;;;;10.20;3.43;;;12.40;1.00;;;;;;4974335;28;20554;-51
2021/11/07 10:25:49;;;;;;;9.73;2.10;;;12.50;1.00;;;;;;4974216;28;20233;-51
2021/11/07 10:28:21;;;;;;;10.97;3.23;;;12.50;1.00;;;;;;4973525;28;20211;-50
2021/11/07 10:31:15;;;;;;;10.30;2.10;;;12.40;1.00;;;;;;4972650;28;20527;-51
2021/11/07 10:52:47;;;;;;;11.40;3.57;;;12.10;1.00;;;;;;4973686;28;20946;-51
2021/11/07 10:55:22;;;;;;;17.50;2.27;;;12.10;1.00;;;;;;4975708;28;20339;-51
2021/11/07 10:57:53;;;;;;;12.63;2.80;;;11.80;1.00;;;;;;4974685;28;20204;-51
2021/11/07 11:00:29;;;;;;;17.00;3.07;;;12.00;1.00;;;;;;4956268;28;20289;-50
2021/11/07 11:03:00;;;;;;;13.53;2.87;;;12.00;1.00;;;;;;4973744;28;20223;-52
2021/11/07 11:05:38;;;;;;;9.70;2.63;;;12.00;1.00;;;;;;4956342;28;20738;-51
2021/11/07 11:08:21;;;;;;;9.43;2.10;;;12.20;1.00;;;;;;4974359;28;20888;-51
2021/11/07 11:25:26;;;;;;;7.87;2.33;;;14.10;1.00;;;;;;4952620;28;20848;-50
2021/11/07 11:33:34;;;;;;;11.57;2.47;;;13.90;1.00;;;;;;4894236;29;20212;-51
2021/11/07 11:36:46;;;;;;;8.60;2.10;;;13.40;1.00;;;;;;4898636;29;20365;-59
2021/11/07 11:39:30;;;;;;;9.37;2.17;;;13.30;1.00;;;;;;4892641;29;20223;-59
2021/11/07 11:41:54;;;;;;;10.00;2.43;;;13.10;1.00;;;;;;4893122;29;20303;-59
2021/11/07 11:44:22;;;;;;;10.33;2.23;;;12.80;1.00;;;;;;4894724;29;20251;-59
2021/11/07 11:46:58;;;;;;;13.70;2.00;;;12.90;36.20;;;;;;4896520;29;20307;-61
2021/11/07 12:05:39;;;;;;;8.30;2.60;;;12.80;1.00;;;;;;4973892;28;20288;-51
2021/11/07 12:08:08;;;;;;;8.67;2.13;;;12.90;1.00;;;;;;4970883;28;20208;-51
2021/11/07 12:10:44;;;;;;;8.87;1.93;;;12.60;1.00;;;;;;4974536;28;20234;-51
2021/11/07 12:16:22;;;;;;;13.47;2.90;;;12.20;1.00;;;;;;4974916;28;20233;-50
2021/11/07 12:19:09;;;;;;;9.07;2.40;;;12.10;1.00;;;;;;4975884;28;20221;-52
2021/11/07 12:21:50;;;;;;;12.40;2.73;;;12.20;1.00;;;;;;4968479;28;20333;-52
2021/11/07 12:24:46;;;;;;;10.93;2.57;;;12.40;99.90;;;;;;4978646;28;20298;-51
2021/11/07 12:27:25;;;;;;;10.80;2.03;;;12.40;1.00;;;;;;4944280;28;20304;-51
2021/11/07 12:30:03;;;;;;;12.50;2.37;;;12.80;99.90;;;;;;4989296;28;20212;-51
2021/11/07 12:32:34;;;;;;;11.50;3.03;;;13.50;1.00;;;;;;4982985;28;20210;-50
2021/11/07 12:35:26;;;;;;;8.67;1.93;;;13.40;99.90;;;;;;4989079;28;20331;-49
2021/11/07 12:41:11;;;;;;;11.80;2.23;;;13.90;99.90;;;;;;4984700;28;20203;-51
2021/11/07 12:43:47;;;;;;;13.03;2.30;;;13.40;1.00;;;;;;4981651;28;20321;-51
2021/11/07 12:46:33;;;;;;;10.87;3.57;;;13.40;1.00;;;;;;4979658;28;21030;-51
2021/11/07 12:49:23;;;;;;;11.30;3.13;;;13.20;99.90;;;;;;4988210;28;20302;-51
2021/11/07 12:51:54;;;;;;;11.57;2.93;;;13.00;99.90;;;;;;4982882;28;20202;-51
2021/11/07 12:54:24;;;;;;;11.67;2.70;;;12.80;99.90;;;;;;4987013;28;20261;-51
2021/11/07 12:56:56;;;;;;;11.80;3.00;;;12.50;1.00;;;;;;4988987;28;20206;-50
2021/11/07 12:59:39;;;;;;;8.70;2.90;;;12.60;99.90;;;;;;4991837;28;20201;-50
2021/11/07 13:02:23;;;;;;;8.63;3.07;;;13.10;1.00;;;;;;4988996;28;20718;-52
2021/11/07 13:04:55;;;;;;;9.83;2.30;;;13.20;99.90;;;;;;4986212;28;20280;-51
2021/11/07 13:07:28;;;;;;;14.70;3.20;;;13.40;99.90;;;;;;4983272;28;20314;-51
2021/11/07 13:10:00;;;;;;;12.00;2.77;;;13.70;99.90;;;;;;4991068;28;20258;-50
2021/11/07 13:12:34;;;;;;;9.87;2.10;;;13.90;1.00;;;;;;4988209;28;20331;-51
2021/11/07 13:15:18;;;;;;;15.07;3.20;;;13.60;99.90;;;;;;4988224;28;20647;-51
2021/11/07 13:17:57;;;;;;;8.13;1.80;;;13.10;1.00;;;;;;4979956;28;20307;-50
2021/11/07 13:20:47;;;;;;;11.37;3.07;;;13.50;99.90;;;;;;4991657;28;20279;-50
2021/11/07 13:28:57;;;;;;;13.77;2.57;;;13.60;1.00;;;;;;4989164;28;20288;-52
2021/11/07 13:31:28;;;;;;;13.03;2.40;;;13.40;1.00;;;;;;4989729;28;20309;-51
2021/11/07 13:34:13;;;;;;;10.70;3.93;;;13.30;1.00;;;;;;4985797;28;20203;-51
2021/11/07 13:36:42;;;;;;;9.10;2.93;;;13.20;99.90;;;;;;4983791;28;20289;-50
2021/11/07 13:39:12;;;;;;;12.53;2.50;;;13.30;1.00;;;;;;4969428;28;20213;-51
2021/11/07 13:41:41;;;;;;;13.07;2.93;;;13.20;1.00;;;;;;4987308;28;20658;-50
2021/11/07 13:44:15;;;;;;;13.43;3.80;;;13.00;1.00;;;;;;4986580;28;20245;-50
2021/11/07 13:47:02;;;;;;;12.70;2.60;;;13.10;1.00;;;;;;4983003;28;21721;-50
2021/11/07 13:49:29;;;;;;;13.17;2.30;;;13.00;1.00;;;;;;4986246;28;20663;-52
2021/11/07 13:52:00;;;;;;;17.47;2.20;;;13.20;99.90;;;;;;4981334;28;20217;-51
2021/11/07 13:54:29;;;;;;;14.13;2.80;;;13.30;1.00;;;;;;4985075;28;20206;-51
2021/11/07 13:56:56;;;;;;;13.00;3.37;;;13.30;46.60;;;;;;4980161;28;20214;-51
2021/11/07 13:59:40;;;;;;;13.40;3.37;;;13.30;1.00;;;;;;4983230;28;20215;-48
2021/11/07 14:02:17;;;;;;;10.37;2.40;;;13.20;99.90;;;;;;4983973;28;20207;-50
2021/11/07 14:04:47;;;;;;;14.27;2.83;;;13.20;1.00;;;;;;4982763;28;20253;-50
2021/11/07 14:07:30;;;;;;;17.27;2.97;;;13.40;1.00;;;;;;4983239;28;20362;-51
2021/11/07 14:10:05;;;;;;;16.87;3.47;;;13.20;1.00;;;;;;4984949;28;20206;-50
2021/11/07 14:12:48;;;;;;;13.33;2.70;;;13.20;99.90;;;;;;4986044;28;20229;-51
2021/11/07 14:15:32;;;;;;;14.80;2.60;;;13.40;1.00;;;;;;4981832;28;20890;-51
2021/11/07 14:18:22;;;;;;;11.17;3.03;;;13.10;1.00;;;;;;4983614;28;20237;-50
2021/11/07 14:21:04;;;;;;;14.70;2.93;;;12.90;1.00;;;;;;4986127;28;20246;-51
2021/11/07 14:23:39;;;;;;;13.37;2.47;;;13.00;99.90;;;;;;4989144;28;20270;-51
2021/11/07 14:26:25;;;;;;;14.30;2.60;;;12.80;1.00;;;;;;4986279;28;20233;-51
2021/11/07 14:29:23;;;;;;;7.73;2.37;;;12.60;1.00;;;;;;4976215;28;20214;-51
2021/11/07 14:34:42;;;;;;;10.30;2.27;;;13.00;1.00;;;;;;4986664;28;20199;-49
2021/11/07 14:39:47;;;;;;;13.10;2.90;;;12.60;1.00;;;;;;4991288;28;20305;-49
2021/11/07 14:48:26;;;;;;;11.63;3.23;;;12.20;99.90;;;;;;4984329;28;20337;-49
2021/11/07 14:51:13;;;;;;;10.37;2.53;;;12.20;99.90;;;;;;4969185;28;21515;-49
2021/11/07 14:53:50;;;;;;;11.27;2.90;;;12.10;40.40;;;;;;4981040;28;20288;-52
2021/11/07 15:06:55;;;;;;;11.23;2.70;;;12.10;99.90;;;;;;4977398;28;20284;-49
2021/11/07 15:09:29;;;;;;;8.30;2.20;;;12.00;1.00;;;;;;4953481;28;20763;-50
2021/11/07 15:18:16;;;;;;;11.50;2.87;;;11.90;99.90;;;;;;4948425;28;20288;-50
2021/11/07 15:20:54;;;;;;;11.20;2.77;;;11.90;1.00;;;;;;4978177;28;20316;-50
2021/11/07 15:23:54;;;;;;;15.60;3.37;;;12.10;1.00;;;;;;4982111;28;20335;-50
2021/11/07 15:26:36;;;;;;;16.70;2.90;;;12.00;1.00;;;;;;4986934;28;20305;-49
2021/11/07 15:29:09;;;;;;;15.77;3.10;;;11.80;1.00;;;;;;4983826;28;20629;-49
2021/11/07 15:31:36;;;;;;;15.80;2.87;;;11.70;1.00;;;;;;4980454;28;21046;-50
2021/11/07 15:34:26;;;;;;;11.73;3.20;;;11.60;1.00;;;;;;4979602;28;20298;-51
2021/11/07 15:36:54;;;;;;;11.70;2.77;;;11.50;1.00;;;;;;4987317;28;20294;-49
2021/11/07 15:39:23;;;;;;;17.00;2.80;;;11.50;1.00;;;;;;4977049;28;20202;-50
2021/11/07 15:42:09;;;;;;;12.67;2.87;;;11.40;1.00;;;;;;4978799;28;20228;-50
2021/11/07 15:44:47;;;;;;;12.47;2.50;;;11.40;99.90;;;;;;4982334;28;20976;-51
2021/11/07 15:47:18;;;;;;;8.63;2.40;;;11.40;99.90;;;;;;4974203;28;20225;-50
2021/11/07 15:52:42;;;;;;;12.03;3.03;;;11.40;1.00;;;;;;4984100;28;20288;-51
2021/11/07 16:08:58;;;;;;;17.70;2.87;;;11.30;1.00;;;;;;4980287;28;20228;-50
2021/11/07 16:16:38;;;;;;;16.77;3.07;;;11.20;1.00;;;;;;4985287;28;20279;-51
2021/11/07 16:19:10;;;;;;;13.20;3.03;;;11.10;1.00;;;;;;4984822;28;21015;-51
2021/11/07 16:21:42;;;;;;;15.73;3.00;;;10.70;1.00;;;;;;4988073;28;22079;-50